sensor_id;sensor_type;location;lat;lon;timestamp;P1;durP1;ratioP1;P2;durP2;ratioP2
54745;SDS011;40640;48.130;11.356;2023-03-04T00:03:17;110.82;;;41.55;;
54745;SDS011;40640;48.130;11.356;2023-03-04T00:07:21;112.10;;;41.20;;
54745;SDS011;40640;48.130;11.356;2023-03-04T00:11:24;112.65;;;41.25;;
54745;SDS011;40640;48.130;11.356;2023-03-04T00:15:27;107.03;;;41.20;;
54745;SDS011;40640;48.130;11.356;2023-03-04T00:19:30;120.70;;;43.88;;
54745;SDS011;40640;48.130;11.356;2023-03-04T00:23:34;116.68;;;43.03;;
54745;SDS011;40640;48.130;11.356;2023-03-04T00:27:37;109.68;;;40.70;;
54745;SDS011;40640;48.130;11.356;2023-03-04T00:31:40;119.72;;;43.55;;
54745;SDS011;40640;48.130;11.356;2023-03-04T00:35:43;112.82;;;41.17;;
54745;SDS011;40640;48.130;11.356;2023-03-04T00:39:47;114.50;;;41.20;;
54745;SDS011;40640;48.130;11.356;2023-03-04T00:43:50;116.80;;;41.25;;
54745;SDS011;40640;48.130;11.356;2023-03-04T00:47:53;122.28;;;42.90;;
54745;SDS011;40640;48.130;11.356;2023-03-04T00:51:56;116.07;;;41.58;;
54745;SDS011;40640;48.130;11.356;2023-03-04T00:56:00;111.20;;;41.30;;
54745;SDS011;40640;48.130;11.356;2023-03-04T01:00:05;115.05;;;42.80;;
54745;SDS011;40640;48.130;11.356;2023-03-04T01:04:08;118.57;;;41.97;;
54745;SDS011;40640;48.130;11.356;2023-03-04T01:08:11;108.35;;;40.97;;
54745;SDS011;40640;48.130;11.356;2023-03-04T01:12:15;114.90;;;42.05;;
54745;SDS011;40640;48.130;11.356;2023-03-04T01:16:18;121.82;;;42.58;;
54745;SDS011;40640;48.130;11.356;2023-03-04T01:20:21;109.28;;;40.08;;
54745;SDS011;40640;48.130;11.356;2023-03-04T01:24:24;107.68;;;41.63;;
54745;SDS011;40640;48.130;11.356;2023-03-04T01:28:28;107.65;;;39.97;;
54745;SDS011;40640;48.130;11.356;2023-03-04T01:32:31;101.85;;;38.05;;
54745;SDS011;40640;48.130;11.356;2023-03-04T01:36:34;108.97;;;41.72;;
54745;SDS011;40640;48.130;11.356;2023-03-04T01:40:37;101.45;;;38.80;;
54745;SDS011;40640;48.130;11.356;2023-03-04T01:44:42;110.30;;;40.70;;
54745;SDS011;40640;48.130;11.356;2023-03-04T01:48:45;100.28;;;40.03;;
54745;SDS011;40640;48.130;11.356;2023-03-04T01:52:48;95.20;;;38.83;;
54745;SDS011;40640;48.130;11.356;2023-03-04T01:56:51;91.15;;;36.58;;
54745;SDS011;40640;48.130;11.356;2023-03-04T02:00:55;91.53;;;37.13;;
54745;SDS011;40640;48.130;11.356;2023-03-04T02:04:58;99.72;;;39.33;;
54745;SDS011;40640;48.130;11.356;2023-03-04T02:09:02;100.18;;;39.22;;
54745;SDS011;40640;48.130;11.356;2023-03-04T02:13:06;95.53;;;36.55;;
54745;SDS011;40640;48.130;11.356;2023-03-04T02:17:10;110.07;;;36.35;;
54745;SDS011;40640;48.130;11.356;2023-03-04T02:21:14;85.95;;;34.15;;
54745;SDS011;40640;48.130;11.356;2023-03-04T02:25:23;97.70;;;38.75;;
54745;SDS011;40640;48.130;11.356;2023-03-04T02:29:34;87.63;;;35.00;;
54745;SDS011;40640;48.130;11.356;2023-03-04T02:33:37;92.18;;;37.28;;
54745;SDS011;40640;48.130;11.356;2023-03-04T02:37:40;89.35;;;34.75;;
54745;SDS011;40640;48.130;11.356;2023-03-04T02:41:42;90.68;;;37.85;;
54745;SDS011;40640;48.130;11.356;2023-03-04T02:45:49;87.28;;;35.45;;
54745;SDS011;40640;48.130;11.356;2023-03-04T02:53:56;80.03;;;31.92;;
54745;SDS011;40640;48.130;11.356;2023-03-04T02:57:59;82.20;;;33.63;;
54745;SDS011;40640;48.130;11.356;2023-03-04T03:02:03;84.90;;;35.72;;
54745;SDS011;40640;48.130;11.356;2023-03-04T03:06:08;87.90;;;35.25;;
54745;SDS011;40640;48.130;11.356;2023-03-04T03:10:11;91.40;;;34.72;;
54745;SDS011;40640;48.130;11.356;2023-03-04T03:14:15;79.63;;;34.55;;
54745;SDS011;40640;48.130;11.356;2023-03-04T03:18:19;75.00;;;33.38;;
54745;SDS011;40640;48.130;11.356;2023-03-04T03:22:22;75.03;;;34.38;;
54745;SDS011;40640;48.130;11.356;2023-03-04T03:26:25;81.90;;;34.42;;
54745;SDS011;40640;48.130;11.356;2023-03-04T03:30:28;75.82;;;33.85;;
54745;SDS011;40640;48.130;11.356;2023-03-04T03:34:32;77.35;;;33.55;;
54745;SDS011;40640;48.130;11.356;2023-03-04T03:38:35;73.38;;;33.78;;
54745;SDS011;40640;48.130;11.356;2023-03-04T03:42:38;78.03;;;33.67;;
54745;SDS011;40640;48.130;11.356;2023-03-04T03:46:41;77.32;;;33.00;;
54745;SDS011;40640;48.130;11.356;2023-03-04T03:50:45;81.60;;;34.28;;
54745;SDS011;40640;48.130;11.356;2023-03-04T03:54:48;80.78;;;34.40;;
54745;SDS011;40640;48.130;11.356;2023-03-04T03:58:51;78.93;;;33.05;;
54745;SDS011;40640;48.130;11.356;2023-03-04T04:02:54;80.90;;;33.17;;
54745;SDS011;40640;48.130;11.356;2023-03-04T04:07:00;79.17;;;32.87;;
54745;SDS011;40640;48.130;11.356;2023-03-04T04:11:03;79.90;;;33.08;;
54745;SDS011;40640;48.130;11.356;2023-03-04T04:15:08;76.88;;;33.33;;
54745;SDS011;40640;48.130;11.356;2023-03-04T04:19:15;76.22;;;32.42;;
54745;SDS011;40640;48.130;11.356;2023-03-04T04:23:20;77.65;;;32.90;;
54745;SDS011;40640;48.130;11.356;2023-03-04T04:27:23;76.13;;;31.38;;
54745;SDS011;40640;48.130;11.356;2023-03-04T04:31:26;82.53;;;32.33;;
54745;SDS011;40640;48.130;11.356;2023-03-04T04:35:29;84.80;;;34.85;;
54745;SDS011;40640;48.130;11.356;2023-03-04T04:39:34;80.63;;;33.35;;
54745;SDS011;40640;48.130;11.356;2023-03-04T04:43:37;86.13;;;34.67;;
54745;SDS011;40640;48.130;11.356;2023-03-04T04:47:40;89.72;;;35.67;;
54745;SDS011;40640;48.130;11.356;2023-03-04T04:51:43;79.15;;;31.58;;
54745;SDS011;40640;48.130;11.356;2023-03-04T04:55:47;87.95;;;34.70;;
54745;SDS011;40640;48.130;11.356;2023-03-04T04:59:50;79.30;;;32.72;;
54745;SDS011;40640;48.130;11.356;2023-03-04T05:03:53;77.55;;;32.80;;
54745;SDS011;40640;48.130;11.356;2023-03-04T05:07:56;79.43;;;30.52;;
54745;SDS011;40640;48.130;11.356;2023-03-04T05:12:00;85.10;;;33.72;;
54745;SDS011;40640;48.130;11.356;2023-03-04T05:16:03;85.60;;;33.92;;
54745;SDS011;40640;48.130;11.356;2023-03-04T05:20:07;95.70;;;34.72;;
54745;SDS011;40640;48.130;11.356;2023-03-04T05:24:11;85.95;;;32.85;;
54745;SDS011;40640;48.130;11.356;2023-03-04T05:28:15;85.00;;;33.80;;
54745;SDS011;40640;48.130;11.356;2023-03-04T05:32:18;77.60;;;31.88;;
54745;SDS011;40640;48.130;11.356;2023-03-04T05:36:21;79.68;;;31.73;;
54745;SDS011;40640;48.130;11.356;2023-03-04T05:40:24;84.78;;;33.88;;
54745;SDS011;40640;48.130;11.356;2023-03-04T05:44:28;91.45;;;35.40;;
54745;SDS011;40640;48.130;11.356;2023-03-04T05:48:31;87.25;;;34.53;;
54745;SDS011;40640;48.130;11.356;2023-03-04T05:52:34;87.00;;;35.08;;
54745;SDS011;40640;48.130;11.356;2023-03-04T05:56:36;81.85;;;34.05;;
54745;SDS011;40640;48.130;11.356;2023-03-04T06:00:41;86.18;;;36.40;;
54745;SDS011;40640;48.130;11.356;2023-03-04T06:04:44;89.60;;;34.55;;
54745;SDS011;40640;48.130;11.356;2023-03-04T06:08:46;84.32;;;33.67;;
54745;SDS011;40640;48.130;11.356;2023-03-04T06:12:49;91.38;;;35.28;;
54745;SDS011;40640;48.130;11.356;2023-03-04T06:16:53;93.28;;;36.50;;
54745;SDS011;40640;48.130;11.356;2023-03-04T06:20:56;87.68;;;36.88;;
54745;SDS011;40640;48.130;11.356;2023-03-04T06:25:00;78.28;;;33.83;;
54745;SDS011;40640;48.130;11.356;2023-03-04T06:29:03;86.82;;;34.33;;
54745;SDS011;40640;48.130;11.356;2023-03-04T06:33:07;81.32;;;33.83;;
54745;SDS011;40640;48.130;11.356;2023-03-04T06:37:10;80.45;;;33.10;;
54745;SDS011;40640;48.130;11.356;2023-03-04T06:41:13;78.82;;;34.15;;
54745;SDS011;40640;48.130;11.356;2023-03-04T06:45:16;79.63;;;33.67;;
54745;SDS011;40640;48.130;11.356;2023-03-04T06:49:20;84.13;;;34.80;;
54745;SDS011;40640;48.130;11.356;2023-03-04T06:53:23;80.75;;;35.50;;
54745;SDS011;40640;48.130;11.356;2023-03-04T06:57:26;77.40;;;35.20;;
54745;SDS011;40640;48.130;11.356;2023-03-04T07:01:29;73.85;;;33.85;;
54745;SDS011;40640;48.130;11.356;2023-03-04T07:05:33;68.25;;;32.13;;
54745;SDS011;40640;48.130;11.356;2023-03-04T07:09:36;76.10;;;32.42;;
54745;SDS011;40640;48.130;11.356;2023-03-04T07:13:38;64.65;;;31.10;;
54745;SDS011;40640;48.130;11.356;2023-03-04T07:17:41;58.58;;;30.83;;
54745;SDS011;40640;48.130;11.356;2023-03-04T07:21:45;51.00;;;28.27;;
54745;SDS011;40640;48.130;11.356;2023-03-04T07:25:48;55.92;;;29.45;;
54745;SDS011;40640;48.130;11.356;2023-03-04T07:29:52;52.10;;;28.73;;
54745;SDS011;40640;48.130;11.356;2023-03-04T07:33:55;54.63;;;29.25;;
54745;SDS011;40640;48.130;11.356;2023-03-04T07:38:00;52.92;;;29.70;;
54745;SDS011;40640;48.130;11.356;2023-03-04T07:42:03;57.95;;;30.65;;
54745;SDS011;40640;48.130;11.356;2023-03-04T07:46:11;62.63;;;32.55;;
54745;SDS011;40640;48.130;11.356;2023-03-04T07:50:15;61.30;;;30.80;;
54745;SDS011;40640;48.130;11.356;2023-03-04T07:54:19;64.47;;;32.35;;
54745;SDS011;40640;48.130;11.356;2023-03-04T07:58:23;63.63;;;31.40;;
54745;SDS011;40640;48.130;11.356;2023-03-04T08:02:26;63.22;;;31.23;;
54745;SDS011;40640;48.130;11.356;2023-03-04T08:06:29;60.08;;;31.85;;
54745;SDS011;40640;48.130;11.356;2023-03-04T08:10:34;63.75;;;31.33;;
54745;SDS011;40640;48.130;11.356;2023-03-04T08:14:39;59.97;;;30.42;;
54745;SDS011;40640;48.130;11.356;2023-03-04T08:18:43;62.95;;;31.63;;
54745;SDS011;40640;48.130;11.356;2023-03-04T08:22:47;58.38;;;30.45;;
54745;SDS011;40640;48.130;11.356;2023-03-04T08:26:51;58.50;;;31.00;;
54745;SDS011;40640;48.130;11.356;2023-03-04T08:30:54;58.20;;;29.88;;
54745;SDS011;40640;48.130;11.356;2023-03-04T08:34:57;58.80;;;30.38;;
54745;SDS011;40640;48.130;11.356;2023-03-04T08:39:02;51.67;;;29.20;;
54745;SDS011;40640;48.130;11.356;2023-03-04T08:43:07;56.20;;;29.27;;
54745;SDS011;40640;48.130;11.356;2023-03-04T08:47:10;49.63;;;28.73;;
54745;SDS011;40640;48.130;11.356;2023-03-04T08:51:14;45.50;;;29.10;;
54745;SDS011;40640;48.130;11.356;2023-03-04T08:55:17;45.17;;;28.20;;
54745;SDS011;40640;48.130;11.356;2023-03-04T08:59:22;40.80;;;28.15;;
54745;SDS011;40640;48.130;11.356;2023-03-04T09:03:24;40.90;;;27.60;;
54745;SDS011;40640;48.130;11.356;2023-03-04T09:07:28;38.67;;;27.40;;
54745;SDS011;40640;48.130;11.356;2023-03-04T09:11:31;32.15;;;25.95;;
54745;SDS011;40640;48.130;11.356;2023-03-04T09:15:35;31.67;;;25.25;;
54745;SDS011;40640;48.130;11.356;2023-03-04T09:23:41;26.13;;;22.70;;
54745;SDS011;40640;48.130;11.356;2023-03-04T09:27:44;27.67;;;23.60;;
54745;SDS011;40640;48.130;11.356;2023-03-04T09:31:48;27.25;;;23.10;;
54745;SDS011;40640;48.130;11.356;2023-03-04T09:35:51;27.33;;;22.15;;
54745;SDS011;40640;48.130;11.356;2023-03-04T09:39:54;24.63;;;22.13;;
54745;SDS011;40640;48.130;11.356;2023-03-04T09:43:57;24.10;;;21.55;;
54745;SDS011;40640;48.130;11.356;2023-03-04T09:48:01;24.83;;;22.20;;
54745;SDS011;40640;48.130;11.356;2023-03-04T09:52:08;24.05;;;21.25;;
54745;SDS011;40640;48.130;11.356;2023-03-04T09:56:17;21.70;;;19.40;;
54745;SDS011;40640;48.130;11.356;2023-03-04T10:00:22;28.13;;;20.43;;
54745;SDS011;40640;48.130;11.356;2023-03-04T10:04:33;21.48;;;19.27;;
54745;SDS011;40640;48.130;11.356;2023-03-04T10:08:42;22.33;;;20.02;;
54745;SDS011;40640;48.130;11.356;2023-03-04T10:12:48;22.80;;;20.25;;
54745;SDS011;40640;48.130;11.356;2023-03-04T10:16:54;22.08;;;19.88;;
54745;SDS011;40640;48.130;11.356;2023-03-04T10:21:03;21.35;;;19.15;;
54745;SDS011;40640;48.130;11.356;2023-03-04T10:25:17;27.58;;;19.27;;
54745;SDS011;40640;48.130;11.356;2023-03-04T10:29:22;20.50;;;18.40;;
54745;SDS011;40640;48.130;11.356;2023-03-04T10:33:26;21.25;;;19.10;;
54745;SDS011;40640;48.130;11.356;2023-03-04T10:37:43;22.77;;;18.67;;
54745;SDS011;40640;48.130;11.356;2023-03-04T10:41:59;21.23;;;18.77;;
54745;SDS011;40640;48.130;11.356;2023-03-04T10:46:03;21.98;;;19.13;;
54745;SDS011;40640;48.130;11.356;2023-03-04T10:50:12;25.43;;;20.63;;
54745;SDS011;40640;48.130;11.356;2023-03-04T10:54:28;21.95;;;19.65;;
54745;SDS011;40640;48.130;11.356;2023-03-04T10:58:33;22.05;;;19.75;;
54745;SDS011;40640;48.130;11.356;2023-03-04T11:02:36;24.63;;;21.47;;
54745;SDS011;40640;48.130;11.356;2023-03-04T11:06:39;23.58;;;20.17;;
54745;SDS011;40640;48.130;11.356;2023-03-04T11:14:47;26.27;;;22.25;;
54745;SDS011;40640;48.130;11.356;2023-03-04T11:18:52;23.77;;;21.20;;
54745;SDS011;40640;48.130;11.356;2023-03-04T11:22:56;26.98;;;21.35;;
54745;SDS011;40640;48.130;11.356;2023-03-04T11:27:09;24.65;;;21.25;;
54745;SDS011;40640;48.130;11.356;2023-03-04T11:31:17;25.02;;;22.35;;
54745;SDS011;40640;48.130;11.356;2023-03-04T11:35:23;27.60;;;22.83;;
54745;SDS011;40640;48.130;11.356;2023-03-04T11:39:29;27.88;;;23.48;;
54745;SDS011;40640;48.130;11.356;2023-03-04T11:43:37;26.38;;;21.67;;
54745;SDS011;40640;48.130;11.356;2023-03-04T11:47:45;25.13;;;21.52;;
54745;SDS011;40640;48.130;11.356;2023-03-04T11:51:58;27.00;;;20.17;;
54745;SDS011;40640;48.130;11.356;2023-03-04T11:56:23;26.10;;;19.95;;
54745;SDS011;40640;48.130;11.356;2023-03-04T12:00:35;27.02;;;20.35;;
54745;SDS011;40640;48.130;11.356;2023-03-04T12:05:01;30.70;;;21.00;;
54745;SDS011;40640;48.130;11.356;2023-03-04T12:09:17;24.40;;;20.33;;
54745;SDS011;40640;48.130;11.356;2023-03-04T12:13:45;23.98;;;20.13;;
54745;SDS011;40640;48.130;11.356;2023-03-04T12:18:06;24.77;;;21.47;;
54745;SDS011;40640;48.130;11.356;2023-03-04T12:22:20;26.70;;;21.70;;
54745;SDS011;40640;48.130;11.356;2023-03-04T12:26:32;24.38;;;20.10;;
54745;SDS011;40640;48.130;11.356;2023-03-04T12:30:43;23.90;;;21.02;;
54745;SDS011;40640;48.130;11.356;2023-03-04T12:39:47;27.52;;;21.02;;
54745;SDS011;40640;48.130;11.356;2023-03-04T12:43:58;26.20;;;20.70;;
54745;SDS011;40640;48.130;11.356;2023-03-04T12:48:11;24.42;;;20.45;;
54745;SDS011;40640;48.130;11.356;2023-03-04T12:52:33;25.85;;;22.23;;
54745;SDS011;40640;48.130;11.356;2023-03-04T12:56:48;25.88;;;19.98;;
54745;SDS011;40640;48.130;11.356;2023-03-04T13:00:56;24.15;;;19.15;;
54745;SDS011;40640;48.130;11.356;2023-03-04T13:05:13;24.20;;;19.80;;
54745;SDS011;40640;48.130;11.356;2023-03-04T13:09:27;24.92;;;20.25;;
54745;SDS011;40640;48.130;11.356;2023-03-04T13:13:35;24.55;;;19.52;;
54745;SDS011;40640;48.130;11.356;2023-03-04T13:17:41;25.70;;;19.70;;
54745;SDS011;40640;48.130;11.356;2023-03-04T13:21:46;27.85;;;19.30;;
54745;SDS011;40640;48.130;11.356;2023-03-04T13:39:56;26.17;;;18.92;;
54745;SDS011;40640;48.130;11.356;2023-03-04T13:49:01;29.95;;;19.55;;
54745;SDS011;40640;48.130;11.356;2023-03-04T13:57:33;26.33;;;18.55;;
54745;SDS011;40640;48.130;11.356;2023-03-04T14:01:49;30.17;;;18.42;;
54745;SDS011;40640;48.130;11.356;2023-03-04T14:10:27;30.40;;;19.27;;
54745;SDS011;40640;48.130;11.356;2023-03-04T14:14:33;26.98;;;17.85;;
54745;SDS011;40640;48.130;11.356;2023-03-04T14:18:43;29.08;;;18.98;;
54745;SDS011;40640;48.130;11.356;2023-03-04T14:22:46;32.47;;;19.75;;
54745;SDS011;40640;48.130;11.356;2023-03-04T14:26:49;31.58;;;17.85;;
54745;SDS011;40640;48.130;11.356;2023-03-04T14:30:53;32.33;;;18.35;;
54745;SDS011;40640;48.130;11.356;2023-03-04T14:35:00;29.77;;;17.67;;
54745;SDS011;40640;48.130;11.356;2023-03-04T14:39:05;28.77;;;17.52;;
54745;SDS011;40640;48.130;11.356;2023-03-04T14:43:10;34.17;;;17.65;;
54745;SDS011;40640;48.130;11.356;2023-03-04T14:47:18;28.38;;;16.50;;
54745;SDS011;40640;48.130;11.356;2023-03-04T14:51:30;27.83;;;16.20;;
54745;SDS011;40640;48.130;11.356;2023-03-04T14:55:38;24.98;;;15.25;;
54745;SDS011;40640;48.130;11.356;2023-03-04T14:59:40;26.25;;;15.57;;
54745;SDS011;40640;48.130;11.356;2023-03-04T15:03:44;28.25;;;15.48;;
54745;SDS011;40640;48.130;11.356;2023-03-04T15:07:58;25.95;;;15.48;;
54745;SDS011;40640;48.130;11.356;2023-03-04T15:12:05;25.00;;;14.98;;
54745;SDS011;40640;48.130;11.356;2023-03-04T15:16:10;27.77;;;14.80;;
54745;SDS011;40640;48.130;11.356;2023-03-04T15:20:20;31.27;;;15.52;;
54745;SDS011;40640;48.130;11.356;2023-03-04T15:24:27;26.80;;;14.38;;
54745;SDS011;40640;48.130;11.356;2023-03-04T15:28:30;27.30;;;14.93;;
54745;SDS011;40640;48.130;11.356;2023-03-04T15:32:35;28.50;;;14.93;;
54745;SDS011;40640;48.130;11.356;2023-03-04T15:36:38;28.48;;;14.55;;
54745;SDS011;40640;48.130;11.356;2023-03-04T15:40:42;28.45;;;14.05;;
54745;SDS011;40640;48.130;11.356;2023-03-04T15:44:45;29.02;;;15.45;;
54745;SDS011;40640;48.130;11.356;2023-03-04T15:48:48;29.40;;;14.85;;
54745;SDS011;40640;48.130;11.356;2023-03-04T15:52:51;30.70;;;15.05;;
54745;SDS011;40640;48.130;11.356;2023-03-04T15:56:58;28.67;;;14.48;;
54745;SDS011;40640;48.130;11.356;2023-03-04T16:01:01;25.60;;;14.55;;
54745;SDS011;40640;48.130;11.356;2023-03-04T16:05:05;33.63;;;14.40;;
54745;SDS011;40640;48.130;11.356;2023-03-04T16:09:09;28.33;;;13.73;;
54745;SDS011;40640;48.130;11.356;2023-03-04T16:13:16;29.40;;;14.40;;
54745;SDS011;40640;48.130;11.356;2023-03-04T16:17:20;31.77;;;13.10;;
54745;SDS011;40640;48.130;11.356;2023-03-04T16:21:23;30.63;;;13.80;;
54745;SDS011;40640;48.130;11.356;2023-03-04T16:25:26;27.48;;;14.05;;
54745;SDS011;40640;48.130;11.356;2023-03-04T16:29:32;26.23;;;14.35;;
54745;SDS011;40640;48.130;11.356;2023-03-04T16:33:34;30.13;;;14.95;;
54745;SDS011;40640;48.130;11.356;2023-03-04T16:37:38;29.85;;;14.48;;
54745;SDS011;40640;48.130;11.356;2023-03-04T16:41:41;35.25;;;16.13;;
54745;SDS011;40640;48.130;11.356;2023-03-04T16:45:46;31.55;;;15.15;;
54745;SDS011;40640;48.130;11.356;2023-03-04T16:49:49;30.92;;;14.55;;
54745;SDS011;40640;48.130;11.356;2023-03-04T16:53:52;29.30;;;13.88;;
54745;SDS011;40640;48.130;11.356;2023-03-04T16:57:56;31.40;;;14.57;;
54745;SDS011;40640;48.130;11.356;2023-03-04T17:02:01;35.83;;;13.90;;
54745;SDS011;40640;48.130;11.356;2023-03-04T17:06:04;29.80;;;13.80;;
54745;SDS011;40640;48.130;11.356;2023-03-04T17:10:07;29.73;;;14.45;;
54745;SDS011;40640;48.130;11.356;2023-03-04T17:14:11;28.85;;;14.52;;
54745;SDS011;40640;48.130;11.356;2023-03-04T17:18:15;32.13;;;15.90;;
54745;SDS011;40640;48.130;11.356;2023-03-04T17:22:18;30.50;;;14.77;;
54745;SDS011;40640;48.130;11.356;2023-03-04T17:26:21;26.63;;;14.57;;
54745;SDS011;40640;48.130;11.356;2023-03-04T17:30:24;30.00;;;15.25;;
54745;SDS011;40640;48.130;11.356;2023-03-04T17:34:28;28.70;;;15.10;;
54745;SDS011;40640;48.130;11.356;2023-03-04T17:38:31;39.78;;;16.67;;
54745;SDS011;40640;48.130;11.356;2023-03-04T17:42:34;32.85;;;15.20;;
54745;SDS011;40640;48.130;11.356;2023-03-04T17:46:37;27.52;;;15.45;;
54745;SDS011;40640;48.130;11.356;2023-03-04T17:50:47;27.02;;;13.23;;
54745;SDS011;40640;48.130;11.356;2023-03-04T17:54:51;31.60;;;15.07;;
54745;SDS011;40640;48.130;11.356;2023-03-04T17:58:53;30.95;;;14.77;;
54745;SDS011;40640;48.130;11.356;2023-03-04T18:02:56;30.00;;;14.88;;
54745;SDS011;40640;48.130;11.356;2023-03-04T18:07:00;28.88;;;15.57;;
54745;SDS011;40640;48.130;11.356;2023-03-04T18:11:03;30.30;;;14.88;;
54745;SDS011;40640;48.130;11.356;2023-03-04T18:15:06;31.08;;;16.08;;
54745;SDS011;40640;48.130;11.356;2023-03-04T18:19:09;32.08;;;15.55;;
54745;SDS011;40640;48.130;11.356;2023-03-04T18:23:13;31.40;;;15.38;;
54745;SDS011;40640;48.130;11.356;2023-03-04T18:27:16;30.05;;;15.35;;
54745;SDS011;40640;48.130;11.356;2023-03-04T18:31:19;31.50;;;15.25;;
54745;SDS011;40640;48.130;11.356;2023-03-04T18:35:24;31.10;;;16.10;;
54745;SDS011;40640;48.130;11.356;2023-03-04T18:39:28;33.85;;;16.45;;
54745;SDS011;40640;48.130;11.356;2023-03-04T18:43:31;32.45;;;16.00;;
54745;SDS011;40640;48.130;11.356;2023-03-04T18:47:35;31.08;;;15.65;;
54745;SDS011;40640;48.130;11.356;2023-03-04T18:51:38;31.23;;;16.23;;
54745;SDS011;40640;48.130;11.356;2023-03-04T18:55:42;29.90;;;16.17;;
54745;SDS011;40640;48.130;11.356;2023-03-04T18:59:45;29.67;;;15.27;;
54745;SDS011;40640;48.130;11.356;2023-03-04T19:03:51;28.67;;;14.50;;
54745;SDS011;40640;48.130;11.356;2023-03-04T19:07:56;34.15;;;16.15;;
54745;SDS011;40640;48.130;11.356;2023-03-04T19:12:00;30.98;;;16.50;;
54745;SDS011;40640;48.130;11.356;2023-03-04T19:16:03;28.45;;;15.80;;
54745;SDS011;40640;48.130;11.356;2023-03-04T19:20:07;32.55;;;16.08;;
54745;SDS011;40640;48.130;11.356;2023-03-04T19:24:11;32.17;;;16.05;;
54745;SDS011;40640;48.130;11.356;2023-03-04T19:28:15;34.25;;;16.10;;
54745;SDS011;40640;48.130;11.356;2023-03-04T19:32:18;31.10;;;16.05;;
54745;SDS011;40640;48.130;11.356;2023-03-04T19:36:20;32.13;;;15.70;;
54745;SDS011;40640;48.130;11.356;2023-03-04T19:40:25;29.90;;;15.85;;
54745;SDS011;40640;48.130;11.356;2023-03-04T19:44:30;31.05;;;15.27;;
54745;SDS011;40640;48.130;11.356;2023-03-04T19:48:33;30.48;;;16.90;;
54745;SDS011;40640;48.130;11.356;2023-03-04T19:52:36;31.33;;;16.23;;
54745;SDS011;40640;48.130;11.356;2023-03-04T19:56:39;36.28;;;18.95;;
54745;SDS011;40640;48.130;11.356;2023-03-04T20:00:43;35.63;;;18.40;;
54745;SDS011;40640;48.130;11.356;2023-03-04T20:04:47;41.20;;;19.48;;
54745;SDS011;40640;48.130;11.356;2023-03-04T20:08:50;35.58;;;19.15;;
54745;SDS011;40640;48.130;11.356;2023-03-04T20:12:53;33.97;;;18.42;;
54745;SDS011;40640;48.130;11.356;2023-03-04T20:16:57;41.03;;;21.02;;
54745;SDS011;40640;48.130;11.356;2023-03-04T20:21:01;33.60;;;17.38;;
54745;SDS011;40640;48.130;11.356;2023-03-04T20:25:04;36.97;;;19.15;;
54745;SDS011;40640;48.130;11.356;2023-03-04T20:29:07;36.42;;;17.30;;
54745;SDS011;40640;48.130;11.356;2023-03-04T20:33:11;39.53;;;18.52;;
54745;SDS011;40640;48.130;11.356;2023-03-04T20:37:14;41.22;;;19.58;;
54745;SDS011;40640;48.130;11.356;2023-03-04T20:41:17;34.70;;;18.15;;
54745;SDS011;40640;48.130;11.356;2023-03-04T20:45:20;36.83;;;18.27;;
54745;SDS011;40640;48.130;11.356;2023-03-04T20:49:26;42.58;;;20.30;;
54745;SDS011;40640;48.130;11.356;2023-03-04T20:53:30;34.33;;;18.25;;
54745;SDS011;40640;48.130;11.356;2023-03-04T20:57:32;38.70;;;18.75;;
54745;SDS011;40640;48.130;11.356;2023-03-04T21:01:36;37.20;;;19.08;;
54745;SDS011;40640;48.130;11.356;2023-03-04T21:05:43;38.47;;;19.67;;
54745;SDS011;40640;48.130;11.356;2023-03-04T21:09:45;35.35;;;19.00;;
54745;SDS011;40640;48.130;11.356;2023-03-04T21:13:49;39.15;;;20.08;;
54745;SDS011;40640;48.130;11.356;2023-03-04T21:17:56;42.05;;;20.55;;
54745;SDS011;40640;48.130;11.356;2023-03-04T21:22:00;44.25;;;21.50;;
54745;SDS011;40640;48.130;11.356;2023-03-04T21:26:04;36.85;;;19.75;;
54745;SDS011;40640;48.130;11.356;2023-03-04T21:30:08;42.00;;;19.85;;
54745;SDS011;40640;48.130;11.356;2023-03-04T21:34:13;41.42;;;20.58;;
54745;SDS011;40640;48.130;11.356;2023-03-04T21:38:19;42.88;;;18.27;;
54745;SDS011;40640;48.130;11.356;2023-03-04T21:42:22;45.10;;;21.38;;
54745;SDS011;40640;48.130;11.356;2023-03-04T21:46:25;40.35;;;19.48;;
54745;SDS011;40640;48.130;11.356;2023-03-04T21:50:28;47.70;;;21.65;;
54745;SDS011;40640;48.130;11.356;2023-03-04T21:54:32;46.70;;;20.05;;
54745;SDS011;40640;48.130;11.356;2023-03-04T21:58:35;44.15;;;19.92;;
54745;SDS011;40640;48.130;11.356;2023-03-04T22:02:41;46.97;;;20.77;;
54745;SDS011;40640;48.130;11.356;2023-03-04T22:06:44;46.53;;;20.20;;
54745;SDS011;40640;48.130;11.356;2023-03-04T22:10:48;48.88;;;22.83;;
54745;SDS011;40640;48.130;11.356;2023-03-04T22:14:51;47.35;;;20.95;;
54745;SDS011;40640;48.130;11.356;2023-03-04T22:18:54;48.25;;;20.90;;
54745;SDS011;40640;48.130;11.356;2023-03-04T22:22:57;44.47;;;21.55;;
54745;SDS011;40640;48.130;11.356;2023-03-04T22:27:01;44.72;;;20.58;;
54745;SDS011;40640;48.130;11.356;2023-03-04T22:31:11;45.15;;;20.65;;
54745;SDS011;40640;48.130;11.356;2023-03-04T22:35:14;52.42;;;22.67;;
54745;SDS011;40640;48.130;11.356;2023-03-04T22:39:18;45.35;;;21.52;;
54745;SDS011;40640;48.130;11.356;2023-03-04T22:43:22;50.85;;;22.67;;
54745;SDS011;40640;48.130;11.356;2023-03-04T22:47:25;42.72;;;20.27;;
54745;SDS011;40640;48.130;11.356;2023-03-04T22:51:28;44.58;;;20.63;;
54745;SDS011;40640;48.130;11.356;2023-03-04T22:55:31;42.90;;;20.52;;
54745;SDS011;40640;48.130;11.356;2023-03-04T22:59:35;42.83;;;21.05;;
54745;SDS011;40640;48.130;11.356;2023-03-04T23:03:38;46.65;;;20.15;;
54745;SDS011;40640;48.130;11.356;2023-03-04T23:07:42;45.92;;;21.30;;
54745;SDS011;40640;48.130;11.356;2023-03-04T23:11:45;50.47;;;22.52;;
54745;SDS011;40640;48.130;11.356;2023-03-04T23:15:49;51.67;;;22.38;;
54745;SDS011;40640;48.130;11.356;2023-03-04T23:19:52;54.72;;;23.00;;
54745;SDS011;40640;48.130;11.356;2023-03-04T23:23:55;45.30;;;20.73;;
54745;SDS011;40640;48.130;11.356;2023-03-04T23:28:01;47.30;;;21.70;;
54745;SDS011;40640;48.130;11.356;2023-03-04T23:32:05;46.05;;;21.35;;
54745;SDS011;40640;48.130;11.356;2023-03-04T23:36:08;44.38;;;21.25;;
54745;SDS011;40640;48.130;11.356;2023-03-04T23:40:15;54.10;;;23.05;;
54745;SDS011;40640;48.130;11.356;2023-03-04T23:44:19;53.10;;;23.40;;
54745;SDS011;40640;48.130;11.356;2023-03-04T23:48:23;50.70;;;22.40;;
54745;SDS011;40640;48.130;11.356;2023-03-04T23:52:26;47.80;;;21.10;;
54745;SDS011;40640;48.130;11.356;2023-03-04T23:56:29;47.42;;;21.60;;
